Time;durP1;ratioP1;P1;durP2;ratioP2;P2;SDS_P1;SDS_P2;PMS_P1;PMS_P2;Temp;Humidity;BMP_temperature;BMP_pressure;BME280_temperature;BME280_humidity;BME280_pressure;Samples;Min_cycle;Max_cycle;Signal;HPM_P1;HPM_P2
2022/12/20 00:01:19;;;;;;;9.52;3.70;;;10.40;99.90;;;;;;5087410;28;20097;-63
2022/12/20 00:03:45;;;;;;;6.80;3.95;;;;;;;;;;5087669;28;20039;-62
2022/12/20 00:06:13;;;;;;;7.63;3.28;;;;;;;;;;5070470;28;20090;-62
2022/12/20 00:08:40;;;;;;;5.95;3.42;;;;;;;;;;5069222;28;20075;-63
2022/12/20 00:11:06;;;;;;;7.00;4.57;;;10.40;99.90;;;;;;5087962;28;20501;-62
2022/12/20 00:13:32;;;;;;;9.27;4.00;;;10.30;99.90;;;;;;5069766;28;20046;-63
2022/12/20 00:16:19;;;;;;;6.57;3.53;;;;;;;;;;5088044;28;20040;-62
2022/12/20 00:18:45;;;;;;;10.50;4.20;;;;;;;;;;5086983;28;20054;-63
2022/12/20 00:21:12;;;;;;;6.57;3.60;;;10.20;99.90;;;;;;5087519;28;20048;-63
2022/12/20 00:23:39;;;;;;;8.07;3.97;;;;;;;;;;5087544;28;20028;-63
2022/12/20 00:26:11;;;;;;;7.15;3.47;;;10.10;99.90;;;;;;5087505;28;20047;-62
2022/12/20 00:28:37;;;;;;;5.13;2.92;;;;;;;;;;5087205;28;20493;-61
2022/12/20 00:31:04;;;;;;;6.28;3.78;;;;;;;;;;5069083;28;20196;-63
2022/12/20 00:33:30;;;;;;;7.35;4.43;;;;;;;;;;5087347;28;20123;-63
2022/12/20 00:35:56;;;;;;;6.47;3.72;;;10.10;99.90;;;;;;5087237;28;20382;-62
2022/12/20 00:38:24;;;;;;;6.25;3.92;;;10.20;99.90;;;;;;5087323;28;20047;-63
2022/12/20 00:41:08;;;;;;;8.45;4.05;;;10.00;99.90;;;;;;5068478;28;20050;-63
2022/12/20 00:43:34;;;;;;;6.25;4.18;;;;;;;;;;5087578;28;20071;-63
2022/12/20 00:46:00;;;;;;;4.72;3.67;;;;;;;;;;5087351;28;20051;-62
2022/12/20 00:48:27;;;;;;;9.85;4.03;;;10.10;99.90;;;;;;5087259;28;20484;-63
2022/12/20 00:50:57;;;;;;;6.80;3.97;;;;;;;;;;5087319;28;20429;-62
2022/12/20 00:53:23;;;;;;;8.55;3.58;;;;;;;;;;5087355;28;20430;-62
2022/12/20 00:55:49;;;;;;;7.10;3.70;;;;;;;;;;5087016;28;20051;-61
2022/12/20 00:58:15;;;;;;;6.63;4.20;;;;;;;;;;5068751;28;20534;-62
2022/12/20 01:00:41;;;;;;;5.30;3.10;;;;;;;;;;5068730;28;20059;-62
2022/12/20 01:03:07;;;;;;;6.32;3.63;;;10.10;99.90;;;;;;5087089;28;20072;-63
2022/12/20 01:05:33;;;;;;;4.43;3.10;;;;;;;;;;5086975;28;20044;-63
2022/12/20 01:07:59;;;;;;;5.28;3.70;;;10.20;99.90;;;;;;5086777;28;20504;-63
2022/12/20 01:10:24;;;;;;;6.95;3.70;;;;;;;;;;5068788;28;20126;-63
2022/12/20 01:12:50;;;;;;;5.38;3.65;;;10.20;99.90;;;;;;5086844;28;20044;-62
2022/12/20 01:15:16;;;;;;;7.45;3.55;;;;;;;;;;5086920;28;20044;-63
2022/12/20 01:17:42;;;;;;;8.32;3.47;;;;;;;;;;5087043;28;20187;-62
2022/12/20 01:20:09;;;;;;;5.57;3.17;;;;;;;;;;5068544;28;20055;-63
2022/12/20 01:22:35;;;;;;;7.63;3.75;;;;;;;;;;5087205;28;20075;-63
2022/12/20 01:25:01;;;;;;;7.20;3.80;;;;;;;;;;5068704;28;20081;-63
2022/12/20 01:27:27;;;;;;;5.53;3.08;;;;;;;;;;5068501;28;20055;-63
2022/12/20 01:29:53;;;;;;;5.32;3.78;;;;;;;;;;5068443;28;20047;-62
2022/12/20 01:32:19;;;;;;;7.30;3.88;;;10.10;99.90;;;;;;5068723;28;20410;-62
2022/12/20 01:34:46;;;;;;;4.20;3.45;;;;;;;;;;5086871;28;20044;-63
2022/12/20 01:37:12;;;;;;;7.88;3.83;;;;;;;;;;5068549;28;20077;-62
2022/12/20 01:39:38;;;;;;;8.70;3.38;;;;;;;;;;5068612;28;20044;-63
2022/12/20 01:42:04;;;;;;;4.65;3.30;;;;;;;;;;5068206;28;20075;-63
2022/12/20 01:44:29;;;;;;;6.88;3.88;;;10.00;99.90;;;;;;5054386;28;20040;-63
2022/12/20 01:46:55;;;;;;;5.47;4.00;;;;;;;;;;5086534;28;20035;-63
2022/12/20 01:49:33;;;;;;;6.25;3.40;;;;;;;;;;5095891;28;20727;-62
2022/12/20 01:52:02;;;;;;;5.13;3.22;;;;;;;;;;5088142;28;20051;-62
2022/12/20 01:54:36;;;;;;;6.30;3.70;;;9.90;99.90;;;;;;5087024;28;20452;-62
2022/12/20 01:57:07;;;;;;;3.80;3.30;;;9.90;99.90;;;;;;5107979;28;20090;-62
2022/12/20 01:59:35;;;;;;;6.55;3.80;;;;;;;;;;5107148;28;20114;-62
2022/12/20 02:02:02;;;;;;;7.10;3.67;;;;;;;;;;5108524;28;20044;-62
2022/12/20 02:04:28;;;;;;;5.88;3.25;;;10.00;99.90;;;;;;5093124;28;20079;-62
2022/12/20 02:06:54;;;;;;;8.75;3.67;;;;;;;;;;5076119;28;20086;-62
2022/12/20 02:09:20;;;;;;;6.85;3.85;;;;;;;;;;5089527;28;20039;-61
2022/12/20 02:12:09;;;;;;;6.10;3.58;;;;;;;;;;5071202;28;20113;-62
2022/12/20 02:14:48;;;;;;;4.18;3.28;;;10.10;99.90;;;;;;5071653;28;20378;-62
2022/12/20 02:17:32;;;;;;;5.63;3.30;;;;;;;;;;5071423;28;20417;-61
2022/12/20 02:20:10;;;;;;;3.45;3.10;;;;;;;;;;5089418;28;20451;-63
2022/12/20 02:22:57;;;;;;;6.18;3.67;;;10.00;99.90;;;;;;5089604;28;20047;-62
2022/12/20 02:25:29;;;;;;;4.85;3.47;;;;;;;;;;5071181;28;20447;-62
2022/12/20 02:28:00;;;;;;;3.42;3.13;;;;;;;;;;5089486;28;20036;-63
2022/12/20 02:30:34;;;;;;;4.20;3.35;;;10.40;99.90;;;;;;5093993;28;20058;-62
2022/12/20 02:33:03;;;;;;;4.95;2.83;;;10.30;99.90;;;;;;5106151;28;20080;-62
2022/12/20 02:35:32;;;;;;;3.95;3.47;;;;;;;;;;5089187;28;20044;-63
2022/12/20 02:38:00;;;;;;;4.97;3.38;;;;;;;;;;5083468;28;20044;-62
2022/12/20 02:40:38;;;;;;;5.57;2.83;;;;;;;;;;5097133;28;20054;-64
2022/12/20 02:45:52;;;;;;;9.65;4.35;;;;;;;;;;5089157;28;20456;-64
2022/12/20 02:48:18;;;;;;;6.57;4.28;;;10.20;99.90;;;;;;5102981;28;20032;-63
2022/12/20 02:50:46;;;;;;;6.80;4.22;;;;;;;;;;5088848;28;20659;-65
2022/12/20 02:53:12;;;;;;;6.53;4.10;;;10.20;99.90;;;;;;5093450;28;20043;-65
2022/12/20 02:55:54;;;;;;;4.72;3.17;;;;;;;;;;5098051;28;20094;-64
2022/12/20 02:58:31;;;;;;;6.22;3.75;;;;;;;;;;5085009;28;20044;-65
2022/12/20 03:01:03;;;;;;;7.45;4.25;;;10.30;99.90;;;;;;5083325;28;20410;-65
2022/12/20 03:03:29;;;;;;;6.93;4.35;;;;;;;;;;5075540;28;20054;-64
2022/12/20 03:05:55;;;;;;;6.30;4.50;;;10.20;99.90;;;;;;5098026;28;20085;-64
2022/12/20 03:08:22;;;;;;;6.25;3.80;;;;;;;;;;5084733;28;20048;-66
2022/12/20 03:10:49;;;;;;;9.70;4.55;;;;;;;;;;5098343;28;20051;-65
2022/12/20 03:13:15;;;;;;;8.88;4.57;;;;;;;;;;5075221;28;20541;-64
2022/12/20 03:15:40;;;;;;;4.95;3.75;;;;;;;;;;5070297;28;20043;-65
2022/12/20 03:18:06;;;;;;;7.10;3.47;;;10.20;99.90;;;;;;5083754;28;20055;-64
2022/12/20 03:20:32;;;;;;;9.23;4.13;;;;;;;;;;5076051;28;20127;-64
2022/12/20 03:22:59;;;;;;;6.05;4.03;;;;;;;;;;5097198;28;20032;-64
2022/12/20 03:25:25;;;;;;;5.57;3.80;;;;;;;;;;5102882;28;20055;-64
2022/12/20 03:27:51;;;;;;;6.88;3.85;;;;;;;;;;5070245;28;20046;-64
2022/12/20 03:30:17;;;;;;;6.07;4.05;;;;;;;;;;5073094;28;20055;-65
2022/12/20 03:32:43;;;;;;;4.80;3.80;;;;;;;;;;5070387;28;20433;-65
2022/12/20 03:35:09;;;;;;;5.10;3.70;;;;;;;;;;5088295;28;20390;-65
2022/12/20 03:37:35;;;;;;;5.63;4.05;;;;;;;;;;5106975;28;20035;-64
2022/12/20 03:40:01;;;;;;;9.18;3.90;;;;;;;;;;5097798;28;20405;-64
2022/12/20 03:42:26;;;;;;;7.03;4.10;;;10.20;99.90;;;;;;5090899;28;20039;-64
2022/12/20 03:44:52;;;;;;;10.18;4.05;;;;;;;;;;5102885;28;20043;-65
2022/12/20 03:47:18;;;;;;;9.43;4.38;;;;;;;;;;5088019;28;20046;-65
2022/12/20 03:49:44;;;;;;;5.68;4.00;;;;;;;;;;5086243;28;20046;-64
2022/12/20 03:52:14;;;;;;;5.75;3.58;;;;;;;;;;5090936;28;20039;-65
2022/12/20 03:54:40;;;;;;;6.38;3.63;;;10.20;99.90;;;;;;5088787;28;20035;-64
2022/12/20 03:57:06;;;;;;;7.40;4.35;;;;;;;;;;5090884;28;20040;-64
2022/12/20 03:59:32;;;;;;;5.10;3.83;;;10.20;99.90;;;;;;5075214;28;20123;-65
2022/12/20 04:01:58;;;;;;;6.32;3.78;;;;;;;;;;5072733;28;20047;-65
2022/12/20 04:04:24;;;;;;;7.88;4.47;;;;;;;;;;5090702;28;20441;-64
2022/12/20 04:06:50;;;;;;;6.32;4.43;;;;;;;;;;5087539;28;20032;-65
2022/12/20 04:09:16;;;;;;;7.90;3.95;;;;;;;;;;5073004;28;20048;-65
2022/12/20 04:11:42;;;;;;;9.18;4.38;;;10.30;99.90;;;;;;5075411;28;20119;-64
2022/12/20 04:14:07;;;;;;;6.10;4.25;;;10.40;99.90;;;;;;5072212;28;20327;-64
2022/12/20 04:16:33;;;;;;;8.77;3.88;;;;;;;;;;5069454;28;20489;-65
2022/12/20 04:19:00;;;;;;;6.88;3.97;;;;;;;;;;5089715;28;20044;-65
2022/12/20 04:21:28;;;;;;;7.07;4.75;;;10.20;99.90;;;;;;5072577;28;20054;-65
2022/12/20 04:23:55;;;;;;;7.32;4.65;;;10.30;99.90;;;;;;5087905;28;20048;-64
2022/12/20 04:26:21;;;;;;;6.45;4.40;;;;;;;;;;5072832;28;20060;-65
2022/12/20 04:28:47;;;;;;;7.45;4.28;;;;;;;;;;5088165;28;20540;-65
2022/12/20 04:31:13;;;;;;;9.63;4.43;;;10.20;99.90;;;;;;5089096;28;20143;-65
2022/12/20 04:33:39;;;;;;;8.52;4.25;;;;;;;;;;5081934;28;20045;-65
2022/12/20 04:36:05;;;;;;;11.63;4.50;;;;;;;;;;5072306;28;20040;-65
2022/12/20 04:38:31;;;;;;;5.82;4.50;;;;;;;;;;5069271;28;20052;-65
2022/12/20 04:40:57;;;;;;;8.90;4.68;;;;;;;;;;5068938;28;20094;-66
2022/12/20 04:43:24;;;;;;;7.40;4.32;;;;;;;;;;5087294;28;20040;-65
2022/12/20 04:45:52;;;;;;;10.88;5.10;;;10.40;99.90;;;;;;5070054;28;20383;-64
2022/12/20 04:48:18;;;;;;;5.95;4.00;;;10.30;99.90;;;;;;5087112;28;20032;-65
2022/12/20 04:50:50;;;;;;;6.38;4.22;;;10.40;99.90;;;;;;5093900;28;20040;-64
2022/12/20 04:56:02;;;;;;;6.95;4.60;;;;;;;;;;5083408;28;20051;-62
2022/12/20 04:58:28;;;;;;;4.57;3.70;;;10.40;99.90;;;;;;5077719;28;20079;-62
2022/12/20 05:00:54;;;;;;;5.97;4.05;;;;;;;;;;5092548;28;20060;-63
2022/12/20 05:03:22;;;;;;;8.25;4.22;;;10.40;99.90;;;;;;5068954;28;20035;-62
2022/12/20 05:05:48;;;;;;;6.40;4.10;;;;;;;;;;5087100;28;20119;-63
2022/12/20 05:08:14;;;;;;;4.97;4.35;;;;;;;;;;5101459;28;20036;-63
2022/12/20 05:10:41;;;;;;;9.40;3.78;;;10.70;99.90;;;;;;5087236;28;20097;-63
2022/12/20 05:13:07;;;;;;;6.38;3.97;;;;;;;;;;5101399;28;20032;-63
2022/12/20 05:15:33;;;;;;;8.13;3.85;;;;;;;;;;5087005;28;20046;-62
2022/12/20 05:17:59;;;;;;;6.10;3.75;;;10.70;99.90;;;;;;5068535;28;20047;-63
2022/12/20 05:20:31;;;;;;;7.75;3.85;;;10.60;99.90;;;;;;5076127;28;20048;-63
2022/12/20 05:28:31;;;;;;;5.50;3.60;;;;;;;;;;5094711;28;20442;-62
2022/12/20 05:30:57;;;;;;;4.93;3.60;;;;;;;;;;5092040;28;20068;-63
2022/12/20 05:33:23;;;;;;;4.75;3.35;;;;;;;;;;5072185;28;20102;-63
2022/12/20 05:35:49;;;;;;;6.20;3.45;;;10.60;99.90;;;;;;5072593;28;20067;-62
2022/12/20 05:38:15;;;;;;;6.28;3.13;;;;;;;;;;5105174;28;20043;-62
2022/12/20 05:40:41;;;;;;;5.78;3.78;;;;;;;;;;5094264;28;20044;-65
2022/12/20 05:43:08;;;;;;;4.68;3.55;;;;;;;;;;5080680;28;20043;-65
2022/12/20 05:45:34;;;;;;;6.95;4.20;;;;;;;;;;5096446;28;20216;-65
2022/12/20 05:48:00;;;;;;;7.20;3.30;;;;;;;;;;5085882;28;20036;-64
2022/12/20 05:50:26;;;;;;;4.47;3.67;;;;;;;;;;5072224;28;20469;-65
2022/12/20 05:52:52;;;;;;;4.57;3.17;;;10.70;99.90;;;;;;5090172;28;20469;-65
2022/12/20 05:55:18;;;;;;;4.68;3.17;;;10.70;99.90;;;;;;5071689;28;20040;-65
2022/12/20 05:57:44;;;;;;;5.88;3.72;;;;;;;;;;5104334;28;20118;-65
2022/12/20 06:00:10;;;;;;;8.02;3.50;;;;;;;;;;5085505;28;20036;-65
2022/12/20 06:02:36;;;;;;;6.43;3.85;;;;;;;;;;5079546;28;20450;-65
2022/12/20 06:05:02;;;;;;;7.63;3.80;;;;;;;;;;5076329;28;20079;-65
2022/12/20 06:07:28;;;;;;;8.68;3.30;;;;;;;;;;5104867;28;20043;-65
2022/12/20 06:09:55;;;;;;;6.05;3.70;;;10.80;99.90;;;;;;5107283;28;20847;-65
2022/12/20 06:12:21;;;;;;;4.15;3.45;;;10.80;99.90;;;;;;5109504;28;20092;-65
2022/12/20 06:14:46;;;;;;;4.60;3.30;;;10.80;99.90;;;;;;5104910;28;20036;-65
2022/12/20 06:17:12;;;;;;;5.85;3.30;;;;;;;;;;5107723;28;20036;-65
2022/12/20 06:19:41;;;;;;;6.22;3.15;;;;;;;;;;5090246;28;20054;-65
2022/12/20 06:22:07;;;;;;;5.40;2.83;;;;;;;;;;5101021;28;20074;-65
2022/12/20 06:24:34;;;;;;;5.95;3.92;;;10.90;99.90;;;;;;5104442;28;20048;-65
2022/12/20 06:27:00;;;;;;;7.10;4.10;;;;;;;;;;5089559;28;20047;-65
2022/12/20 06:29:26;;;;;;;6.85;4.18;;;;;;;;;;5089290;28;20459;-64
2022/12/20 06:31:52;;;;;;;5.57;4.43;;;;;;;;;;5085399;28;20404;-64
2022/12/20 06:34:19;;;;;;;11.45;5.25;;;10.60;99.90;;;;;;5090589;28;20039;-65
2022/12/20 06:36:45;;;;;;;7.28;4.30;;;;;;;;;;5095155;28;20051;-65
2022/12/20 06:39:11;;;;;;;7.03;5.40;;;;;;;;;;5074471;28;20040;-64
2022/12/20 06:41:40;;;;;;;6.65;4.78;;;;;;;;;;5101218;28;20048;-65
2022/12/20 06:44:06;;;;;;;8.63;5.50;;;;;;;;;;5077281;28;20468;-64
2022/12/20 06:46:32;;;;;;;9.35;5.80;;;;;;;;;;5101828;28;20784;-64
2022/12/20 06:48:59;;;;;;;6.68;5.00;;;;;;;;;;5101030;28;20046;-65
2022/12/20 06:51:25;;;;;;;11.18;5.65;;;;;;;;;;5088740;28;20035;-64
2022/12/20 06:53:51;;;;;;;6.82;5.45;;;;;;;;;;5088466;28;20075;-65
2022/12/20 06:56:17;;;;;;;9.32;5.95;;;;;;;;;;5088446;28;20044;-64
2022/12/20 06:58:45;;;;;;;8.10;5.60;;;10.40;99.90;;;;;;5072052;28;20051;-64
2022/12/20 07:01:11;;;;;;;10.50;5.88;;;;;;;;;;5088701;28;20485;-64
2022/12/20 07:03:37;;;;;;;9.13;5.55;;;;;;;;;;5088506;28;20050;-65
2022/12/20 07:06:03;;;;;;;8.77;5.85;;;;;;;;;;5104268;28;20123;-65
2022/12/20 07:08:30;;;;;;;12.85;6.85;;;10.30;99.90;;;;;;5088195;28;20501;-65
2022/12/20 07:10:56;;;;;;;9.63;6.35;;;;;;;;;;5088663;28;20047;-66
2022/12/20 07:13:22;;;;;;;11.15;6.18;;;10.30;99.90;;;;;;5088506;28;20076;-64
2022/12/20 07:15:48;;;;;;;10.90;6.50;;;;;;;;;;5085462;28;20075;-65
2022/12/20 07:18:13;;;;;;;8.80;6.70;;;10.40;99.90;;;;;;5081802;28;20092;-65
2022/12/20 07:20:39;;;;;;;9.32;6.50;;;10.40;99.90;;;;;;5102923;28;20113;-65
2022/12/20 07:23:05;;;;;;;10.43;7.18;;;;;;;;;;5104955;28;20054;-64
2022/12/20 07:25:31;;;;;;;13.57;7.75;;;;;;;;;;5105347;28;20764;-65
2022/12/20 07:27:57;;;;;;;15.13;8.10;;;;;;;;;;5102591;28;20040;-65
2022/12/20 07:30:23;;;;;;;9.77;7.78;;;;;;;;;;5087906;28;20063;-66
2022/12/20 07:32:49;;;;;;;10.93;7.97;;;10.40;99.90;;;;;;5105450;28;20040;-65
2022/12/20 07:35:15;;;;;;;9.63;7.30;;;;;;;;;;5070065;28;20044;-65
2022/12/20 07:37:41;;;;;;;11.90;7.40;;;;;;;;;;5089191;28;20075;-65
2022/12/20 07:40:07;;;;;;;9.98;7.70;;;;;;;;;;5104350;28;20046;-65
2022/12/20 07:42:33;;;;;;;10.93;7.72;;;;;;;;;;5103716;28;20042;-65
2022/12/20 07:44:59;;;;;;;10.10;7.10;;;10.50;99.90;;;;;;5105338;28;20039;-65
2022/12/20 07:47:25;;;;;;;12.70;7.22;;;10.50;99.90;;;;;;5085200;28;20108;-65
2022/12/20 07:49:50;;;;;;;11.93;7.40;;;10.50;99.90;;;;;;5087007;28;20400;-65
2022/12/20 07:52:19;;;;;;;8.98;7.40;;;10.70;99.90;;;;;;5106250;28;20096;-64
2022/12/20 07:54:57;;;;;;;9.05;7.50;;;;;;;;;;5106782;28;20047;-65
2022/12/20 07:57:27;;;;;;;10.20;7.10;;;;;;;;;;5103940;28;20045;-66
2022/12/20 07:59:57;;;;;;;10.63;6.45;;;10.70;99.90;;;;;;5106196;28;20032;-65
2022/12/20 08:02:26;;;;;;;8.90;6.55;;;;;;;;;;5088413;28;20056;-66
2022/12/20 08:04:54;;;;;;;11.93;5.68;;;;;;;;;;5104817;28;20066;-68
2022/12/20 08:07:20;;;;;;;7.05;5.63;;;;;;;;;;5085167;28;20500;-66
2022/12/20 08:09:46;;;;;;;8.38;5.65;;;;;;;;;;5085724;28;20039;-65
2022/12/20 08:12:13;;;;;;;7.88;5.88;;;;;;;;;;5097049;28;20043;-67
2022/12/20 08:14:40;;;;;;;7.80;5.32;;;;;;;;;;5086475;28;20051;-67
2022/12/20 08:17:06;;;;;;;7.18;4.97;;;;;;;;;;5102129;28;20035;-65
2022/12/20 08:19:32;;;;;;;7.82;5.18;;;;;;;;;;5087796;28;20039;-66
2022/12/20 08:21:57;;;;;;;7.88;4.70;;;;;;;;;;5086984;28;20606;-66
2022/12/20 08:24:23;;;;;;;7.35;5.32;;;;;;;;;;5103583;28;20050;-66
2022/12/20 08:26:49;;;;;;;6.70;4.78;;;;;;;;;;5101199;28;20751;-66
2022/12/20 08:29:16;;;;;;;6.90;5.22;;;;;;;;;;5101990;28;20036;-65
2022/12/20 08:31:42;;;;;;;6.30;4.18;;;10.70;99.90;;;;;;5083926;28;20051;-66
2022/12/20 08:34:08;;;;;;;6.22;4.15;;;10.80;99.90;;;;;;5099803;28;20058;-66
2022/12/20 08:36:34;;;;;;;6.93;4.68;;;;;;;;;;5080975;28;20494;-66
2022/12/20 08:39:04;;;;;;;8.63;5.03;;;;;;;;;;5074509;28;20051;-66
2022/12/20 08:41:31;;;;;;;6.15;4.30;;;10.80;99.90;;;;;;5101910;28;20066;-66
2022/12/20 08:43:57;;;;;;;6.53;3.90;;;;;;;;;;5101472;28;20049;-66
2022/12/20 08:46:23;;;;;;;8.73;3.67;;;;;;;;;;5078467;28;20040;-66
2022/12/20 08:48:49;;;;;;;6.57;3.85;;;;;;;;;;5073257;28;20076;-66
2022/12/20 08:51:14;;;;;;;7.15;4.38;;;10.90;99.90;;;;;;5065737;28;20072;-66
2022/12/20 08:53:40;;;;;;;4.88;3.35;;;;;;;;;;5069149;28;20048;-67
2022/12/20 08:56:15;;;;;;;5.38;3.40;;;10.90;99.90;;;;;;5090217;28;20040;-65
2022/12/20 08:58:41;;;;;;;5.65;4.07;;;10.90;99.90;;;;;;5084934;28;20046;-66
2022/12/20 09:01:09;;;;;;;7.30;3.70;;;;;;;;;;5099714;28;20093;-66
2022/12/20 09:03:36;;;;;;;6.28;3.58;;;;;;;;;;5093105;28;20503;-67
2022/12/20 09:06:09;;;;;;;4.40;3.53;;;10.90;99.90;;;;;;5092734;28;20435;-65
2022/12/20 09:08:36;;;;;;;9.60;3.92;;;10.70;99.90;;;;;;5083449;28;20078;-65
2022/12/20 09:11:11;;;;;;;9.32;3.65;;;;;;;;;;5089119;28;20093;-66
2022/12/20 09:13:37;;;;;;;10.40;3.70;;;10.90;99.90;;;;;;5078766;28;20047;-66
2022/12/20 09:16:03;;;;;;;6.00;3.45;;;;;;;;;;5075972;28;20417;-67
2022/12/20 09:18:30;;;;;;;6.78;3.30;;;;;;;;;;5078022;28;20106;-66
2022/12/20 09:20:59;;;;;;;4.50;3.10;;;;;;;;;;5090533;28;20134;-66
2022/12/20 09:23:25;;;;;;;4.32;3.53;;;;;;;;;;5090138;28;20040;-66
2022/12/20 09:25:51;;;;;;;8.02;3.72;;;;;;;;;;5090434;28;20063;-66
2022/12/20 09:28:17;;;;;;;5.82;3.50;;;;;;;;;;5075778;28;20048;-66
2022/12/20 09:30:43;;;;;;;4.72;3.38;;;;;;;;;;5089926;28;20055;-66
2022/12/20 09:33:09;;;;;;;7.18;3.53;;;;;;;;;;5075656;28;20052;-67
2022/12/20 09:35:35;;;;;;;6.47;3.60;;;;;;;;;;5078171;28;20043;-67
2022/12/20 09:38:01;;;;;;;6.05;3.88;;;;;;;;;;5075757;28;20101;-66
2022/12/20 09:40:31;;;;;;;4.97;3.78;;;;;;;;;;5082178;28;20486;-66
2022/12/20 09:42:57;;;;;;;5.25;3.47;;;;;;;;;;5092275;28;20050;-66
2022/12/20 09:45:28;;;;;;;4.43;3.45;;;;;;;;;;5106677;28;20040;-66
2022/12/20 09:47:54;;;;;;;6.78;3.15;;;;;;;;;;5077572;28;20090;-65
2022/12/20 09:50:26;;;;;;;4.95;3.63;;;;;;;;;;5075285;28;20036;-66
2022/12/20 09:53:02;;;;;;;6.93;3.33;;;;;;;;;;5076012;28;20036;-66
2022/12/20 09:55:28;;;;;;;4.20;3.33;;;;;;;;;;5058624;28;20502;-66
2022/12/20 09:58:03;;;;;;;5.80;3.17;;;10.90;99.90;;;;;;5082643;28;20179;-66
2022/12/20 10:00:29;;;;;;;5.05;3.05;;;10.80;99.90;;;;;;5107203;28;20100;-65
2022/12/20 10:02:55;;;;;;;6.07;3.60;;;;;;;;;;5108690;28;20093;-67
2022/12/20 10:05:41;;;;;;;8.20;3.88;;;;;;;;;;5107805;28;20048;-66
2022/12/20 10:08:16;;;;;;;4.97;3.30;;;;;;;;;;5090046;28;20047;-66
2022/12/20 10:11:01;;;;;;;10.00;3.60;;;;;;;;;;5108074;28;20114;-65
2022/12/20 10:13:46;;;;;;;6.72;3.75;;;;;;;;;;5086919;28;20059;-66
2022/12/20 10:16:37;;;;;;;4.85;3.00;;;10.90;99.90;;;;;;5086322;28;20039;-66
2022/12/20 10:19:04;;;;;;;7.13;3.38;;;;;;;;;;5090548;28;20568;-65
2022/12/20 10:21:49;;;;;;;5.63;3.38;;;10.70;99.90;;;;;;5089609;28;20147;-65
2022/12/20 10:24:19;;;;;;;5.25;3.25;;;;;;;;;;5101052;28;20035;-66
2022/12/20 10:26:48;;;;;;;9.27;3.50;;;10.80;99.90;;;;;;5106103;28;20042;-67
2022/12/20 10:29:14;;;;;;;4.45;3.15;;;;;;;;;;5070152;28;20040;-65
2022/12/20 10:31:40;;;;;;;5.93;3.25;;;11.00;99.90;;;;;;5088927;28;20070;-66
2022/12/20 10:34:06;;;;;;;4.90;3.25;;;;;;;;;;5089339;28;20114;-67
2022/12/20 10:36:35;;;;;;;5.72;3.30;;;10.90;99.90;;;;;;5088965;28;20085;-68
2022/12/20 10:39:03;;;;;;;6.63;3.47;;;10.90;99.90;;;;;;5090965;28;20031;-66
2022/12/20 10:41:30;;;;;;;7.72;3.55;;;;;;;;;;5090946;28;20054;-66
2022/12/20 10:44:15;;;;;;;4.57;3.20;;;10.90;99.90;;;;;;5089166;28;20055;-66
2022/12/20 10:46:50;;;;;;;4.88;3.30;;;10.90;99.90;;;;;;5084960;28;20043;-65
2022/12/20 10:49:27;;;;;;;8.35;3.22;;;;;;;;;;5073942;28;20075;-65
2022/12/20 10:51:58;;;;;;;8.88;3.65;;;;;;;;;;5087400;28;20195;-65
2022/12/20 10:54:28;;;;;;;9.27;3.58;;;10.80;99.90;;;;;;5088689;28;20509;-66
2022/12/20 10:56:56;;;;;;;5.55;3.15;;;;;;;;;;5079163;28;20405;-66
2022/12/20 10:59:37;;;;;;;5.07;3.13;;;10.90;99.90;;;;;;5088858;28;20043;-65
2022/12/20 11:02:23;;;;;;;4.55;3.30;;;;;;;;;;5101701;28;20494;-66
2022/12/20 11:04:59;;;;;;;5.47;3.13;;;;;;;;;;5087103;28;20043;-65
2022/12/20 11:07:27;;;;;;;7.60;3.63;;;;;;;;;;5096611;28;20047;-65
2022/12/20 11:09:57;;;;;;;5.47;3.30;;;;;;;;;;5084101;28;20077;-66
2022/12/20 11:12:23;;;;;;;5.20;3.25;;;;;;;;;;5088711;28;20039;-66
2022/12/20 11:15:05;;;;;;;4.70;2.97;;;11.00;99.90;;;;;;5105351;28;20097;-66
2022/12/20 11:17:36;;;;;;;6.65;3.60;;;;;;;;;;5089339;28;20040;-65
2022/12/20 11:20:20;;;;;;;5.70;3.65;;;;;;;;;;5089477;28;20497;-65
2022/12/20 11:22:58;;;;;;;5.53;3.23;;;11.10;99.90;;;;;;5107092;28;20047;-66
2022/12/20 11:25:34;;;;;;;4.38;3.50;;;;;;;;;;5086851;28;20063;-66
2022/12/20 11:28:25;;;;;;;5.85;3.30;;;;;;;;;;5105922;28;20513;-65
2022/12/20 11:31:07;;;;;;;3.85;3.00;;;11.00;99.90;;;;;;5072398;28;20486;-65
2022/12/20 11:33:33;;;;;;;5.00;2.97;;;;;;;;;;5103081;28;20398;-66
2022/12/20 11:36:07;;;;;;;9.60;3.35;;;11.00;99.90;;;;;;5087100;28;20065;-66
2022/12/20 11:38:48;;;;;;;6.75;3.15;;;10.80;99.90;;;;;;5074471;28;20649;-66
2022/12/20 11:41:47;;;;;;;6.68;3.28;;;11.00;99.90;;;;;;5081496;28;20138;-66
2022/12/20 11:44:20;;;;;;;5.30;3.83;;;;;;;;;;5034534;28;20506;-66
2022/12/20 11:46:56;;;;;;;4.93;3.28;;;;;;;;;;5087480;28;20035;-64
2022/12/20 11:49:33;;;;;;;4.10;3.35;;;;;;;;;;5087779;28;20046;-65
2022/12/20 11:52:14;;;;;;;4.82;3.90;;;;;;;;;;5081043;28;20520;-66
2022/12/20 11:54:44;;;;;;;4.38;3.63;;;;;;;;;;5087652;28;20641;-65
2022/12/20 11:57:15;;;;;;;7.95;3.45;;;;;;;;;;5087801;28;20039;-66
2022/12/20 11:59:56;;;;;;;5.22;3.47;;;11.00;99.90;;;;;;5087870;28;20078;-65
2022/12/20 12:02:45;;;;;;;5.82;4.35;;;;;;;;;;5087490;28;20044;-66
2022/12/20 12:05:20;;;;;;;7.32;4.10;;;10.90;99.90;;;;;;5040603;28;20054;-66
2022/12/20 12:07:46;;;;;;;;;;;;;;;;;;5082897;28;20032;-66
2022/12/20 12:10:15;;;;;;;9.63;4.30;;;;;;;;;;5087195;28;19966;-66
2022/12/20 12:12:45;;;;;;;7.97;5.15;;;;;;;;;;5079439;28;20055;-66
2022/12/20 12:15:14;;;;;;;7.05;4.90;;;10.90;99.90;;;;;;5071758;28;20047;-65
2022/12/20 12:17:40;;;;;;;6.78;5.10;;;;;;;;;;5071259;28;20040;-66
2022/12/20 12:20:36;;;;;;;5.32;4.70;;;10.60;99.90;;;;;;5087309;28;20042;-66
2022/12/20 12:23:05;;;;;;;7.53;4.78;;;;;;;;;;5072932;28;20052;-66
2022/12/20 12:25:31;;;;;;;6.88;4.93;;;;;;;;;;5087056;28;20051;-66
2022/12/20 12:27:57;;;;;;;7.97;5.35;;;;;;;;;;5079085;28;20788;-66
2022/12/20 12:30:23;;;;;;;8.45;5.20;;;10.80;99.90;;;;;;5086672;28;20063;-66
2022/12/20 12:33:00;;;;;;;7.40;4.88;;;;;;;;;;5080562;28;20036;-67
2022/12/20 12:35:45;;;;;;;6.13;5.20;;;;;;;;;;5077795;28;20108;-66
2022/12/20 12:38:30;;;;;;;6.53;5.13;;;;;;;;;;5087383;28;20040;-66
2022/12/20 12:40:56;;;;;;;10.17;5.80;;;;;;;;;;5087705;28;20083;-66
2022/12/20 12:43:21;;;;;;;8.68;5.93;;;10.70;99.90;;;;;;5088519;28;20345;-65
2022/12/20 12:45:50;;;;;;;8.40;5.90;;;10.80;99.90;;;;;;5058360;28;20076;-65
2022/12/20 12:48:16;;;;;;;7.68;5.28;;;;;;;;;;5107608;28;20122;-66
2022/12/20 12:50:46;;;;;;;8.70;5.20;;;10.70;99.90;;;;;;5077582;28;20641;-65
2022/12/20 12:53:30;;;;;;;8.00;5.68;;;10.90;99.90;;;;;;5089069;28;20096;-66
2022/12/20 12:55:56;;;;;;;8.02;5.47;;;;;;;;;;5089289;28;20534;-65
2022/12/20 12:58:22;;;;;;;10.30;5.05;;;;;;;;;;5088741;28;20075;-65
2022/12/20 13:00:56;;;;;;;7.00;5.25;;;;;;;;;;5088599;28;20173;-66
2022/12/20 13:03:37;;;;;;;9.32;6.10;;;;;;;;;;5079988;28;20043;-65
2022/12/20 13:06:22;;;;;;;9.25;5.63;;;;;;;;;;5086509;28;20482;-66
2022/12/20 13:09:03;;;;;;;10.30;6.10;;;;;;;;;;5076085;28;20124;-66
2022/12/20 13:11:35;;;;;;;8.43;5.72;;;10.90;99.90;;;;;;5086188;28;20383;-66
2022/12/20 13:14:26;;;;;;;9.60;6.45;;;10.90;99.90;;;;;;5070759;28;20047;-66
2022/12/20 13:17:12;;;;;;;7.55;5.45;;;10.90;99.90;;;;;;5070572;28;20168;-65
2022/12/20 13:19:38;;;;;;;6.78;6.10;;;;;;;;;;5070060;28;20047;-65
2022/12/20 13:22:17;;;;;;;7.55;6.32;;;;;;;;;;5071634;28;20044;-66
2022/12/20 13:24:47;;;;;;;9.57;6.43;;;;;;;;;;5086547;28;20044;-66
2022/12/20 13:27:14;;;;;;;9.10;6.75;;;;;;;;;;5071530;28;20467;-66
2022/12/20 13:29:50;;;;;;;7.40;6.38;;;;;;;;;;5053416;28;20044;-66
2022/12/20 13:32:35;;;;;;;7.25;6.15;;;;;;;;;;5068719;28;20048;-65
2022/12/20 13:35:01;;;;;;;8.90;7.10;;;;;;;;;;5070563;28;20090;-65
2022/12/20 13:37:48;;;;;;;9.13;6.93;;;10.90;99.90;;;;;;5091636;28;20071;-66
2022/12/20 13:40:33;;;;;;;11.45;6.50;;;;;;;;;;5075972;28;20414;-66
2022/12/20 13:43:05;;;;;;;10.35;6.72;;;11.00;99.90;;;;;;5097638;28;20047;-66
2022/12/20 13:45:32;;;;;;;9.77;7.03;;;10.80;99.90;;;;;;5096525;28;20413;-65
2022/12/20 13:48:04;;;;;;;7.90;6.43;;;11.10;99.90;;;;;;5102217;28;20494;-66
2022/12/20 13:50:39;;;;;;;10.63;8.07;;;;;;;;;;5106609;28;20050;-66
2022/12/20 13:53:05;;;;;;;8.77;6.88;;;;;;;;;;5106252;28;20394;-66
2022/12/20 13:55:31;;;;;;;10.45;7.60;;;;;;;;;;5107993;28;20084;-66
2022/12/20 13:57:57;;;;;;;11.73;8.52;;;;;;;;;;5088332;28;20049;-66
2022/12/20 14:00:25;;;;;;;8.95;7.75;;;;;;;;;;5088451;28;20043;-65
2022/12/20 14:02:52;;;;;;;11.20;8.07;;;;;;;;;;5074480;28;20125;-66
2022/12/20 14:05:36;;;;;;;9.43;8.15;;;10.90;99.90;;;;;;5091372;28;20360;-66
2022/12/20 14:08:13;;;;;;;9.48;7.50;;;;;;;;;;5088881;28;20398;-66
2022/12/20 14:10:39;;;;;;;9.80;7.85;;;;;;;;;;5077516;28;20051;-66
2022/12/20 14:13:26;;;;;;;9.70;7.80;;;10.60;99.90;;;;;;5091985;28;20421;-66
2022/12/20 14:15:53;;;;;;;14.02;9.18;;;10.90;99.90;;;;;;5078095;28;20489;-66
2022/12/20 14:18:23;;;;;;;10.63;9.05;;;10.70;99.90;;;;;;5093921;28;20075;-65
2022/12/20 14:21:03;;;;;;;11.80;9.13;;;10.90;99.90;;;;;;5064604;28;20565;-65
2022/12/20 14:23:40;;;;;;;10.07;9.07;;;;;;;;;;5073003;28;20035;-65
2022/12/20 14:26:10;;;;;;;10.45;9.30;;;;;;;;;;5071466;28;20047;-65